createdAt,value
2018-08-18T00:02:14.799Z,13.85
2018-08-18T00:04:42.134Z,15.80
2018-08-18T00:07:09.391Z,14.80
2018-08-18T00:09:36.682Z,14.80
2018-08-18T00:12:04.030Z,14.73
2018-08-18T00:14:32.213Z,15.72
2018-08-18T00:16:59.501Z,15.15
2018-08-18T00:19:27.097Z,15.98
2018-08-18T00:21:54.377Z,15.85
2018-08-18T00:24:21.662Z,13.83
2018-08-18T00:26:48.994Z,13.85
2018-08-18T00:29:16.286Z,12.65
2018-08-18T00:31:44.714Z,14.85
2018-08-18T00:34:12.001Z,17.82
2018-08-18T00:36:39.298Z,14.50
2018-08-18T00:39:07.204Z,13.20
2018-08-18T00:41:34.505Z,13.45
2018-08-18T00:44:01.830Z,15.95
2018-08-18T00:46:33.029Z,13.70
2018-08-18T00:49:01.575Z,12.75
2018-08-18T00:51:33.244Z,14.73
2018-08-18T00:54:00.576Z,14.47
2018-08-18T00:56:28.780Z,14.33
2018-08-18T00:58:56.650Z,14.60
2018-08-18T01:01:24.082Z,15.28
2018-08-18T01:03:57.215Z,14.23
2018-08-18T01:06:25.779Z,16.07
2018-08-18T01:08:54.187Z,16.35
2018-08-18T01:11:21.538Z,14.28
2018-08-18T01:13:49.043Z,16.85
2018-08-18T01:16:16.142Z,12.40
2018-08-18T01:18:43.417Z,13.40
2018-08-18T01:21:10.710Z,16.07
2018-08-18T01:23:38.012Z,18.02
2018-08-18T01:26:05.589Z,13.93
2018-08-18T01:28:32.918Z,14.30
2018-08-18T01:31:06.452Z,15.58
2018-08-18T01:33:34.618Z,13.43
2018-08-18T01:36:02.045Z,14.20
2018-08-18T01:38:29.368Z,15.53
2018-08-18T01:41:02.766Z,14.90
2018-08-18T01:43:30.012Z,16.48
2018-08-18T01:45:57.285Z,15.38
2018-08-18T01:48:24.598Z,14.33
2018-08-18T01:50:51.938Z,16.82
2018-08-18T01:53:19.395Z,12.88
2018-08-18T01:55:46.683Z,14.00
2018-08-18T01:58:13.985Z,15.38
2018-08-18T02:00:41.264Z,14.95
2018-08-18T02:03:08.528Z,19.75
2018-08-18T02:05:35.806Z,18.75
2018-08-18T02:08:03.070Z,17.90
2018-08-18T02:10:30.337Z,14.93
2018-08-18T02:13:00.316Z,16.27
2018-08-18T02:15:27.610Z,16.48
2018-08-18T02:17:54.886Z,16.90
2018-08-18T02:20:22.197Z,16.52
2018-08-18T02:22:49.440Z,19.17
2018-08-18T02:25:16.708Z,16.62
2018-08-18T02:27:44.013Z,17.77
2018-08-18T02:30:17.486Z,16.17
2018-08-18T02:32:44.740Z,16.30
2018-08-18T02:35:12.061Z,15.20
2018-08-18T02:37:39.881Z,16.12
2018-08-18T02:40:08.460Z,15.80
2018-08-18T02:42:35.683Z,14.53
2018-08-18T02:45:04.573Z,15.83
2018-08-18T02:47:31.886Z,15.85
2018-08-18T02:50:00.144Z,17.73
2018-08-18T02:52:28.601Z,16.52
2018-08-18T02:54:57.495Z,16.67
2018-08-18T02:57:27.942Z,14.75
2018-08-18T02:59:56.202Z,15.10
2018-08-18T03:02:23.488Z,15.58
2018-08-18T03:04:50.761Z,15.18
2018-08-18T03:07:18.193Z,14.75
2018-08-18T03:09:45.486Z,14.23
2018-08-18T03:12:15.277Z,14.25
2018-08-18T03:14:42.830Z,15.50
2018-08-18T03:17:11.243Z,16.65
2018-08-18T03:19:38.534Z,14.23
2018-08-18T03:22:05.822Z,14.10
2018-08-18T03:24:33.153Z,15.65
2018-08-18T03:27:00.393Z,15.78
2018-08-18T03:29:28.902Z,15.98
2018-08-18T03:31:56.537Z,15.90
2018-08-18T03:34:23.789Z,21.35
2018-08-18T03:36:53.434Z,19.30
2018-08-18T03:39:26.616Z,18.02
2018-08-18T03:41:55.210Z,16.77
2018-08-18T03:44:22.641Z,16.23
2018-08-18T03:46:49.988Z,18.95
2018-08-18T03:49:17.311Z,17.37
2018-08-18T03:51:46.558Z,17.65
2018-08-18T03:54:14.060Z,18.00
2018-08-18T03:56:41.566Z,20.88
2018-08-18T03:59:08.894Z,20.27
2018-08-18T04:01:42.001Z,20.43
2018-08-18T04:04:10.570Z,23.55
2018-08-18T04:06:39.813Z,20.97
2018-08-18T04:09:08.073Z,18.82
2018-08-18T04:11:35.649Z,17.57
2018-08-18T04:14:03.012Z,16.67
2018-08-18T04:16:31.859Z,18.23
2018-08-18T04:19:03.363Z,17.62
2018-08-18T04:21:32.750Z,17.95
2018-08-18T04:24:00.691Z,19.17
2018-08-18T04:26:28.585Z,19.17
2018-08-18T04:28:56.169Z,19.27
2018-08-18T04:31:27.957Z,19.48
2018-08-18T04:33:55.268Z,18.32
2018-08-18T04:36:22.538Z,20.85
2018-08-18T04:38:49.805Z,20.00
2018-08-18T04:41:17.121Z,20.70
2018-08-18T04:43:44.400Z,19.82
2018-08-18T04:46:11.722Z,23.15
2018-08-18T04:48:39.007Z,20.45
2018-08-18T04:51:06.262Z,22.60
2018-08-18T04:53:33.595Z,24.72
2018-08-18T04:56:00.865Z,25.95
2018-08-18T04:58:28.158Z,21.65
2018-08-18T05:00:55.760Z,22.65
2018-08-18T05:03:23.021Z,24.43
2018-08-18T05:05:50.395Z,23.15
2018-08-18T05:08:17.664Z,21.27
2018-08-18T05:10:44.970Z,22.73
2018-08-18T05:13:12.303Z,21.70
2018-08-18T05:15:39.610Z,23.00
2018-08-18T05:18:07.026Z,21.33
2018-08-18T05:20:34.341Z,21.70
2018-08-18T05:23:11.657Z,19.67
2018-08-18T05:25:40.373Z,20.08
2018-08-18T05:28:07.664Z,22.35
2018-08-18T05:30:34.980Z,22.85
2018-08-18T05:33:02.262Z,23.13
2018-08-18T05:35:29.545Z,22.73
2018-08-18T05:37:56.814Z,22.87
2018-08-18T05:40:24.121Z,24.05
2018-08-18T05:42:51.430Z,21.70
2018-08-18T05:45:26.351Z,24.07
2018-08-18T05:47:54.136Z,23.20
2018-08-18T05:50:23.238Z,23.53
2018-08-18T05:52:51.607Z,25.73
2018-08-18T05:55:18.897Z,22.63
2018-08-18T05:57:46.161Z,22.77
2018-08-18T06:00:20.585Z,21.53
2018-08-18T06:02:53.262Z,22.20
2018-08-18T06:05:20.713Z,21.90
2018-08-18T06:07:48.056Z,22.03
2018-08-18T06:10:15.326Z,20.77
2018-08-18T06:12:42.642Z,20.47
2018-08-18T06:15:10.096Z,17.40
2018-08-18T06:17:37.398Z,17.43
2018-08-18T06:20:06.721Z,14.93
2018-08-18T06:22:33.998Z,14.00
2018-08-18T06:25:01.258Z,13.50
2018-08-18T06:27:29.265Z,11.83
2018-08-18T06:29:57.629Z,11.23
2018-08-18T06:32:24.908Z,9.47
2018-08-18T06:34:52.388Z,9.47
2018-08-18T06:37:19.566Z,8.60
2018-08-18T06:39:57.625Z,9.00
2018-08-18T06:42:29.292Z,8.10
2018-08-18T06:44:56.601Z,8.43
2018-08-18T06:47:23.973Z,8.73
2018-08-18T06:49:51.256Z,9.17
2018-08-18T06:52:20.116Z,7.87
2018-08-18T06:54:48.392Z,8.40
2018-08-18T06:57:20.159Z,7.87
2018-08-18T06:59:47.529Z,7.57
2018-08-18T07:02:15.163Z,7.83
2018-08-18T07:04:42.442Z,7.23
2018-08-18T07:07:09.782Z,7.20
2018-08-18T07:09:37.058Z,8.00
2018-08-18T07:12:04.369Z,7.73
2018-08-18T07:14:31.774Z,8.40
2018-08-18T07:16:59.095Z,8.37
2018-08-18T07:19:26.373Z,8.67
2018-08-18T07:21:54.072Z,8.07
2018-08-18T07:24:21.614Z,8.93
2018-08-18T07:26:50.776Z,8.93
2018-08-18T07:29:20.740Z,8.40
2018-08-18T07:31:50.018Z,9.10
2018-08-18T07:34:18.722Z,8.20
2018-08-18T07:36:48.256Z,8.83
2018-08-18T07:39:18.397Z,8.63
2018-08-18T07:41:45.810Z,7.63
2018-08-18T07:44:13.290Z,9.30
2018-08-18T07:46:43.511Z,7.10
2018-08-18T07:49:13.671Z,9.37
2018-08-18T07:51:43.338Z,7.77
2018-08-18T07:54:13.530Z,8.30
2018-08-18T07:56:46.054Z,6.47
2018-08-18T07:59:16.733Z,8.20
2018-08-18T08:01:48.128Z,7.40
2018-08-18T08:04:17.958Z,7.67
2018-08-18T08:06:50.343Z,7.47
2018-08-18T08:09:21.789Z,7.53
2018-08-18T08:11:52.695Z,6.80
2018-08-18T08:14:21.079Z,7.10
2018-08-18T08:16:51.074Z,6.17
2018-08-18T08:19:20.040Z,7.03
2018-08-18T08:21:48.232Z,7.20
2018-08-18T08:24:16.826Z,6.73
2018-08-18T08:26:44.921Z,8.47
2018-08-18T08:29:13.314Z,6.80
2018-08-18T08:31:44.244Z,8.53
2018-08-18T08:34:15.051Z,7.17
2018-08-18T08:36:42.580Z,7.07
2018-08-18T08:39:11.801Z,11.00
2018-08-18T08:41:41.437Z,7.77
2018-08-18T08:44:10.118Z,8.20
2018-08-18T08:46:39.739Z,8.37
2018-08-18T08:49:09.424Z,7.20
2018-08-18T08:51:37.723Z,6.97
2018-08-18T08:54:06.902Z,6.87
2018-08-18T08:56:42.273Z,6.90
2018-08-18T08:59:12.235Z,8.90
2018-08-18T09:01:41.877Z,6.80
2018-08-18T09:04:10.812Z,6.33
2018-08-18T09:06:44.387Z,6.73
2018-08-18T09:09:13.994Z,6.80
2018-08-18T09:11:41.491Z,5.97
2018-08-18T09:14:10.583Z,7.23
2018-08-18T09:16:42.454Z,6.73
2018-08-18T09:19:10.814Z,10.43
2018-08-18T09:21:43.745Z,8.73
2018-08-18T09:24:11.345Z,8.63
2018-08-18T09:26:44.324Z,6.07
2018-08-18T09:29:13.643Z,7.77
2018-08-18T09:31:43.181Z,5.90
2018-08-18T09:34:11.782Z,6.77
2018-08-18T09:36:40.663Z,7.00
2018-08-18T09:39:11.257Z,7.10
2018-08-18T09:41:39.833Z,6.17
2018-08-18T09:44:09.542Z,6.50
2018-08-18T09:46:38.945Z,5.87
2018-08-18T09:49:06.400Z,7.20
2018-08-18T09:51:34.661Z,5.93
2018-08-18T09:54:02.523Z,6.33
2018-08-18T09:56:30.788Z,6.13
2018-08-18T09:58:58.934Z,6.03
2018-08-18T10:01:27.165Z,5.27
2018-08-18T10:03:55.858Z,7.03
2018-08-18T10:06:27.072Z,5.00
2018-08-18T10:08:55.175Z,6.20
2018-08-18T10:11:22.837Z,6.67
2018-08-18T10:13:50.148Z,5.50
2018-08-18T10:16:17.423Z,6.10
2018-08-18T10:18:48.969Z,5.10
2018-08-18T10:21:16.285Z,5.83
2018-08-18T10:23:43.581Z,4.70
2018-08-18T10:26:11.006Z,5.70
2018-08-18T10:28:38.990Z,7.20
2018-08-18T10:31:07.001Z,6.10
2018-08-18T10:33:37.881Z,5.03
2018-08-18T10:36:06.772Z,5.30
2018-08-18T10:38:36.203Z,4.33
2018-08-18T10:41:05.597Z,7.13
2018-08-18T10:43:35.146Z,6.40
2018-08-18T10:46:04.657Z,6.17
2018-08-18T10:48:33.287Z,5.43
2018-08-18T10:51:34.525Z,4.43
2018-08-18T10:54:03.440Z,4.67
2018-08-18T10:56:33.702Z,5.30
2018-08-18T10:59:12.982Z,5.83
2018-08-18T11:01:46.679Z,5.63
2018-08-18T11:04:13.967Z,4.90
2018-08-18T11:06:41.270Z,4.50
2018-08-18T11:09:08.580Z,4.10
2018-08-18T11:11:35.863Z,5.73
2018-08-18T11:14:03.306Z,4.17
2018-08-18T11:16:31.137Z,4.63
2018-08-18T11:18:58.410Z,3.83
2018-08-18T11:21:30.285Z,4.53
2018-08-18T11:24:03.088Z,4.60
2018-08-18T11:26:36.113Z,4.60
2018-08-18T11:29:09.473Z,5.00
2018-08-18T11:31:36.764Z,6.30
2018-08-18T11:34:04.062Z,4.77
2018-08-18T11:36:31.330Z,5.07
2018-08-18T11:38:58.648Z,6.00
2018-08-18T11:41:25.968Z,4.33
2018-08-18T11:43:53.336Z,4.80
2018-08-18T11:46:20.623Z,4.43
2018-08-18T11:48:47.900Z,7.00
2018-08-18T11:51:15.275Z,6.07
2018-08-18T11:53:48.243Z,6.63
2018-08-18T11:56:15.540Z,4.70
2018-08-18T11:58:43.742Z,4.80
2018-08-18T12:01:11.172Z,7.70
2018-08-18T12:03:38.394Z,4.60
2018-08-18T12:06:05.721Z,3.57
2018-08-18T12:08:36.677Z,4.87
2018-08-18T12:11:05.460Z,5.63
2018-08-18T12:13:38.089Z,4.83
2018-08-18T12:16:06.270Z,5.20
2018-08-18T12:18:34.187Z,5.43
2018-08-18T12:21:02.690Z,3.47
2018-08-18T12:23:30.156Z,5.03
2018-08-18T12:26:02.961Z,3.90
2018-08-18T12:28:35.439Z,5.47
2018-08-18T12:31:03.390Z,3.20
2018-08-18T12:33:30.962Z,4.63
2018-08-18T12:35:58.262Z,5.20
2018-08-18T12:38:25.534Z,5.00
2018-08-18T12:40:52.818Z,4.03
2018-08-18T12:43:24.475Z,3.20
2018-08-18T12:45:55.578Z,3.47
2018-08-18T12:48:22.880Z,3.50
2018-08-18T12:50:50.128Z,4.00
2018-08-18T12:53:17.429Z,4.00
2018-08-18T12:55:49.017Z,3.40
2018-08-18T12:58:16.348Z,6.97
2018-08-18T13:00:43.646Z,3.93
2018-08-18T13:03:10.987Z,6.00
2018-08-18T13:05:38.254Z,5.60
2018-08-18T13:08:05.557Z,4.00
2018-08-18T13:10:32.878Z,3.77
2018-08-18T13:13:07.686Z,3.53
2018-08-18T13:15:35.029Z,4.07
2018-08-18T13:18:02.282Z,4.60
2018-08-18T13:20:29.560Z,3.90
2018-08-18T13:22:56.854Z,4.40
2018-08-18T13:25:24.161Z,5.37
2018-08-18T13:27:53.537Z,3.83
2018-08-18T13:30:21.601Z,5.27
2018-08-18T13:32:50.180Z,3.60
2018-08-18T13:35:17.526Z,4.63
2018-08-18T13:37:44.827Z,4.40
2018-08-18T13:40:12.755Z,5.47
2018-08-18T13:42:40.451Z,12.30
2018-08-18T13:45:08.019Z,4.27
2018-08-18T13:47:35.386Z,5.27
2018-08-18T13:50:08.125Z,4.20
2018-08-18T13:52:41.599Z,4.00
2018-08-18T13:55:09.323Z,4.23
2018-08-18T13:57:36.588Z,5.60
2018-08-18T14:00:04.493Z,4.43
2018-08-18T14:02:31.755Z,5.00
2018-08-18T14:04:59.189Z,4.20
2018-08-18T14:07:26.486Z,10.10
2018-08-18T14:10:00.400Z,7.37
2018-08-18T14:12:28.950Z,7.47
2018-08-18T14:14:56.336Z,6.03
2018-08-18T14:17:23.715Z,5.10
2018-08-18T14:19:51.543Z,5.00
2018-08-18T14:22:20.564Z,7.67
2018-08-18T14:24:47.890Z,5.20
2018-08-18T14:27:18.836Z,5.00
2018-08-18T14:29:46.089Z,6.83
2018-08-18T14:32:18.803Z,7.27
2018-08-18T14:34:56.941Z,6.13
2018-08-18T14:37:24.242Z,4.93
2018-08-18T14:39:51.506Z,5.33
2018-08-18T14:42:18.763Z,4.17
2018-08-18T14:44:46.140Z,4.63
2018-08-18T14:47:13.472Z,4.50
2018-08-18T14:49:40.745Z,4.27
2018-08-18T14:52:08.102Z,4.63
2018-08-18T14:54:36.024Z,4.30
2018-08-18T14:57:03.889Z,5.07
2018-08-18T14:59:32.571Z,4.67
2018-08-18T15:02:00.374Z,5.47
2018-08-18T15:04:27.761Z,5.37
2018-08-18T15:06:55.038Z,5.73
2018-08-18T15:09:30.806Z,5.50
2018-08-18T15:11:58.138Z,5.20
2018-08-18T15:14:25.445Z,5.70
2018-08-18T15:16:52.810Z,5.60
2018-08-18T15:19:20.101Z,5.50
2018-08-18T15:21:47.526Z,5.20
2018-08-18T15:24:14.773Z,5.17
2018-08-18T15:26:43.494Z,4.77
2018-08-18T15:29:15.070Z,4.70
2018-08-18T15:31:42.359Z,6.13
2018-08-18T15:34:09.715Z,6.90
2018-08-18T15:36:36.988Z,5.83
2018-08-18T15:39:05.399Z,5.17
2018-08-18T15:41:32.711Z,4.87
2018-08-18T15:44:00.142Z,5.07
2018-08-18T15:46:28.571Z,4.70
2018-08-18T15:48:58.844Z,6.20
2018-08-18T15:51:27.898Z,4.80
2018-08-18T15:53:58.068Z,4.20
2018-08-18T15:56:26.457Z,5.70
2018-08-18T15:58:54.782Z,4.90
2018-08-18T16:01:22.676Z,5.00
2018-08-18T16:03:51.127Z,5.10
2018-08-18T16:06:18.427Z,4.70
2018-08-18T16:08:45.795Z,4.50
2018-08-18T16:11:13.654Z,9.27
2018-08-18T16:13:40.978Z,4.90
2018-08-18T16:16:08.272Z,4.63
2018-08-18T16:18:35.630Z,4.70
2018-08-18T16:21:06.343Z,5.30
2018-08-18T16:23:34.755Z,5.13
2018-08-18T16:26:02.026Z,5.00
2018-08-18T16:28:36.089Z,7.23
2018-08-18T16:31:03.441Z,5.10
2018-08-18T16:33:30.941Z,4.93
2018-08-18T16:35:58.189Z,7.80
2018-08-18T16:38:25.540Z,5.87
2018-08-18T16:40:52.830Z,4.50
2018-08-18T16:43:20.074Z,5.20
2018-08-18T16:45:47.370Z,5.00
2018-08-18T16:48:15.468Z,6.70
2018-08-18T16:50:43.430Z,4.57
2018-08-18T16:53:12.013Z,6.50
2018-08-18T16:55:41.688Z,4.50
2018-08-18T16:58:08.967Z,5.90
2018-08-18T17:01:01.154Z,6.00
2018-08-18T17:03:31.447Z,5.97
2018-08-18T17:05:59.321Z,6.77
2018-08-18T17:08:26.719Z,5.13
2018-08-18T17:10:54.053Z,5.40
2018-08-18T17:13:22.351Z,5.63
2018-08-18T17:15:50.064Z,5.53
2018-08-18T17:18:17.425Z,5.83
2018-08-18T17:20:49.318Z,6.20
2018-08-18T17:23:16.582Z,6.37
2018-08-18T17:25:44.113Z,6.77
2018-08-18T17:28:11.798Z,7.23
2018-08-18T17:30:39.318Z,6.53
2018-08-18T17:33:06.728Z,6.50
2018-08-18T17:35:34.012Z,7.20
2018-08-18T17:38:01.309Z,6.00
2018-08-18T17:40:28.669Z,10.30
2018-08-18T17:42:55.951Z,7.27
2018-08-18T17:45:23.222Z,6.93
2018-08-18T17:47:52.384Z,5.77
2018-08-18T17:50:19.718Z,6.93
2018-08-18T17:52:47.106Z,5.90
2018-08-18T17:55:17.301Z,6.30
2018-08-18T17:57:44.563Z,8.87
2018-08-18T18:00:20.508Z,5.93
2018-08-18T18:02:53.441Z,6.57
2018-08-18T18:05:22.147Z,6.07
2018-08-18T18:07:51.811Z,6.67
2018-08-18T18:10:19.152Z,6.03
2018-08-18T18:12:46.722Z,6.63
2018-08-18T18:15:19.686Z,7.03
2018-08-18T18:17:47.030Z,16.10
2018-08-18T18:20:14.259Z,8.70
2018-08-18T18:22:45.864Z,5.27
2018-08-18T18:25:13.155Z,5.37
2018-08-18T18:27:40.434Z,5.17
2018-08-18T18:30:07.718Z,5.17
2018-08-18T18:32:34.976Z,5.00
2018-08-18T18:35:02.304Z,6.10
2018-08-18T18:37:29.594Z,8.73
2018-08-18T18:40:03.157Z,5.80
2018-08-18T18:42:30.442Z,5.07
2018-08-18T18:44:58.492Z,5.40
2018-08-18T18:47:26.201Z,5.43
2018-08-18T18:49:53.806Z,5.57
2018-08-18T18:52:21.354Z,5.70
2018-08-18T18:54:48.695Z,4.83
2018-08-18T18:57:16.479Z,7.37
2018-08-18T19:00:14.959Z,6.73
2018-08-18T19:02:43.767Z,8.70
2018-08-18T19:05:17.813Z,5.13
2018-08-18T19:07:46.074Z,5.27
2018-08-18T19:10:13.335Z,5.37
2018-08-18T19:12:40.617Z,6.77
2018-08-18T19:15:08.139Z,5.93
2018-08-18T19:17:35.408Z,6.83
2018-08-18T19:20:11.478Z,6.17
2018-08-18T19:22:39.344Z,8.03
2018-08-18T19:25:06.622Z,11.57
2018-08-18T19:27:34.403Z,9.83
2018-08-18T19:30:04.088Z,8.33
2018-08-18T19:32:31.415Z,8.47
2018-08-18T19:34:58.855Z,6.33
2018-08-18T19:37:26.370Z,7.80
2018-08-18T19:39:53.777Z,5.50
2018-08-18T19:42:21.146Z,5.87
2018-08-18T19:44:49.804Z,6.47
2018-08-18T19:47:22.817Z,7.43
2018-08-18T19:49:50.076Z,7.23
2018-08-18T19:52:18.449Z,10.83
2018-08-18T19:54:46.981Z,10.87
2018-08-18T19:57:17.568Z,7.93
2018-08-18T19:59:44.830Z,6.47
2018-08-18T20:02:12.142Z,6.50
2018-08-18T20:04:39.449Z,6.60
2018-08-18T20:07:06.723Z,6.53
2018-08-18T20:09:34.016Z,7.10
2018-08-18T20:12:01.317Z,7.30
2018-08-18T20:14:28.651Z,7.07
2018-08-18T20:16:57.354Z,6.27
2018-08-18T20:19:24.618Z,8.30
2018-08-18T20:21:51.959Z,8.40
2018-08-18T20:24:19.410Z,8.30
2018-08-18T20:26:47.609Z,7.30
2018-08-18T20:29:14.954Z,7.10
2018-08-18T20:31:51.993Z,8.17
2018-08-18T20:34:19.417Z,7.93
2018-08-18T20:36:46.704Z,7.00
2018-08-18T20:39:14.037Z,8.13
2018-08-18T20:41:44.419Z,6.73
2018-08-18T20:44:14.143Z,7.17
2018-08-18T20:46:43.977Z,7.40
2018-08-18T20:49:11.588Z,6.63
2018-08-18T20:51:41.495Z,7.57
2018-08-18T20:54:10.983Z,8.43
2018-08-18T20:56:40.282Z,6.83
2018-08-18T20:59:09.746Z,9.17
2018-08-18T21:01:39.580Z,8.20
2018-08-18T21:04:08.794Z,8.80
2018-08-18T21:06:40.155Z,11.20
2018-08-18T21:09:18.637Z,10.00
2018-08-18T21:11:48.551Z,6.67
2018-08-18T21:14:18.114Z,8.40
2018-08-18T21:16:45.630Z,16.97
2018-08-18T21:19:17.933Z,10.50
2018-08-18T21:21:45.334Z,10.10
2018-08-18T21:24:13.547Z,12.60
2018-08-18T21:26:43.539Z,15.87
2018-08-18T21:29:13.860Z,9.03
2018-08-18T21:31:44.186Z,11.93
2018-08-18T21:34:13.155Z,7.60
2018-08-18T21:36:43.760Z,8.20
2018-08-18T21:39:12.721Z,10.97
2018-08-18T21:41:42.289Z,8.23
2018-08-18T21:44:11.712Z,7.90
2018-08-18T21:46:42.206Z,8.23
2018-08-18T21:49:11.885Z,21.87
2018-08-18T21:51:42.392Z,17.90
2018-08-18T21:54:12.817Z,12.40
2018-08-18T21:56:44.041Z,8.83
2018-08-18T21:59:13.056Z,8.10
2018-08-18T22:01:41.188Z,7.53
2018-08-18T22:04:09.831Z,8.70
2018-08-18T22:06:39.745Z,8.37
2018-08-18T22:09:18.090Z,6.20
2018-08-18T22:11:45.456Z,6.90
2018-08-18T22:14:13.585Z,7.67
2018-08-18T22:16:46.498Z,7.87
2018-08-18T22:19:13.809Z,8.10
2018-08-18T22:21:41.084Z,9.07
2018-08-18T22:24:08.450Z,7.77
2018-08-18T22:26:37.976Z,7.93
2018-08-18T22:29:05.260Z,7.93
2018-08-18T22:31:33.190Z,6.97
2018-08-18T22:34:01.653Z,8.30
2018-08-18T22:36:31.332Z,11.40
2018-08-18T22:38:59.245Z,8.53
2018-08-18T22:41:26.537Z,8.30
2018-08-18T22:43:54.275Z,10.03
2018-08-18T22:46:22.131Z,8.90
2018-08-18T22:48:49.516Z,9.33
2018-08-18T22:51:17.138Z,6.60
2018-08-18T22:53:45.442Z,8.07
2018-08-18T22:56:24.100Z,8.30
2018-08-18T22:58:56.937Z,7.10
2018-08-18T23:01:24.298Z,7.70
2018-08-18T23:03:51.616Z,6.87
2018-08-18T23:06:20.408Z,8.47
2018-08-18T23:08:47.789Z,8.17
2018-08-18T23:11:15.244Z,9.93
2018-08-18T23:13:42.507Z,8.90
2018-08-18T23:18:43.632Z,9.03
2018-08-18T23:21:16.296Z,7.90
2018-08-18T23:23:43.946Z,8.03
2018-08-18T23:26:11.215Z,7.97
2018-08-18T23:28:38.525Z,9.50
2018-08-18T23:31:05.806Z,7.13
2018-08-18T23:33:33.082Z,8.57
2018-08-18T23:36:00.376Z,7.80
2018-08-18T23:38:28.870Z,8.40
2018-08-18T23:45:50.480Z,9.23
2018-08-18T23:48:17.782Z,8.07
2018-08-18T23:50:45.223Z,8.53
2018-08-18T23:53:14.215Z,9.00
2018-08-18T23:55:49.434Z,11.10
2018-08-18T23:58:16.777Z,9.30
